Time;durP1;ratioP1;P1;durP2;ratioP2;P2;SDS_P1;SDS_P2;PMS_P1;PMS_P2;Temp;Humidity;BMP_temperature;BMP_pressure;BME280_temperature;BME280_humidity;BME280_pressure;Samples;Min_cycle;Max_cycle;Signal;HPM_P1;HPM_P2
2023/07/13 03:59:42;;;;;;;1.00;1.00;;;;;;;;;;5006832;23;20531;-69
2023/07/13 04:02:09;;;;;;;1.00;1.00;;;;;;;;;;4976122;28;20219;-69
2023/07/13 04:04:40;;;;;;;0.73;0.73;;;;;;;;;;4975929;28;20210;-68
2023/07/13 04:07:08;;;;;;;0.80;0.80;;;;;;;;;;4975995;28;20190;-68
2023/07/13 04:09:35;;;;;;;0.80;0.80;;;;;;;;;;4975829;28;20246;-67
2023/07/13 04:12:02;;;;;;;0.70;0.70;;;;;;;;;;4975561;28;20674;-67
2023/07/13 04:14:29;;;;;;;1.85;0.80;;;;;;;;;;4976387;28;20207;-67
2023/07/13 04:16:57;;;;;;;0.90;0.90;;;;;;;;;;4975478;28;20211;-67
2023/07/13 04:19:24;;;;;;;1.15;1.15;;;;;;;;;;4975645;28;20230;-67
2023/07/13 04:21:52;;;;;;;0.75;0.75;;;;;;;;;;4975923;28;20207;-67
2023/07/13 04:24:19;;;;;;;0.88;0.88;;;;;;;;;;4975587;28;20227;-67
2023/07/13 04:26:46;;;;;;;0.80;0.80;;;;;;;;;;4975359;28;20610;-67
2023/07/13 04:29:13;;;;;;;0.80;0.80;;;;;;;;;;4975166;28;20222;-67
2023/07/13 04:31:40;;;;;;;0.70;0.70;;;;;;;;;;4975593;28;20210;-70
2023/07/13 04:34:08;;;;;;;0.80;0.80;;;;;;;;;;4975237;28;20258;-69
2023/07/13 04:36:37;;;;;;;1.08;1.08;;;;;;;;;;4975483;28;20207;-69
2023/07/13 04:39:04;;;;;;;0.80;0.80;;;;;;;;;;4975607;28;20224;-69
2023/07/13 04:41:31;;;;;;;0.80;0.80;;;;;;;;;;4975155;28;20678;-69
2023/07/13 04:43:58;;;;;;;1.00;1.00;;;;;;;;;;4975418;28;20223;-70
2023/07/13 04:46:25;;;;;;;0.88;0.88;;;;;;;;;;4975334;28;20203;-70
2023/07/13 04:48:53;;;;;;;0.80;0.80;;;;;;;;;;4975178;28;20270;-70
2023/07/13 04:51:21;;;;;;;0.80;0.80;;;;;;;;;;4975218;28;20289;-70
2023/07/13 04:53:48;;;;;;;0.93;0.93;;;;;;;;;;4974882;28;20206;-70
2023/07/13 04:56:15;;;;;;;1.10;1.10;;;;;;;;;;4975155;28;20207;-68
2023/07/13 04:58:42;;;;;;;1.00;1.00;;;;;;;;;;4975046;28;20226;-68
2023/07/13 05:01:10;;;;;;;1.00;1.00;;;;;;;;;;4975044;28;20211;-69
2023/07/13 05:03:37;;;;;;;0.75;0.75;;;;;;;;;;4974726;28;20222;-70
2023/07/13 05:06:05;;;;;;;0.90;0.90;;;;;;;;;;4974998;28;20203;-70
2023/07/13 05:08:34;;;;;;;0.77;0.75;;;;;;;;;;4974866;28;20227;-69
2023/07/13 05:11:01;;;;;;;0.77;0.77;;;;;;;;;;4974935;28;20211;-69
2023/07/13 05:13:28;;;;;;;0.65;0.65;;;;;;;;;;4974561;28;20211;-69
2023/07/13 05:15:59;;;;;;;0.80;0.80;;;;;;;;;;4974876;28;20658;-69
2023/07/13 05:18:26;;;;;;;0.77;0.77;;;;;;;;;;4974411;28;20594;-69
2023/07/13 05:20:58;;;;;;;0.73;0.73;;;;;;;;;;4974827;28;20208;-69
2023/07/13 05:23:25;;;;;;;0.90;0.90;;;;;;;;;;4974739;28;20210;-69
2023/07/13 05:25:54;;;;;;;0.82;0.82;;;;;;;;;;4974623;28;20302;-69
2023/07/13 05:28:21;;;;;;;0.80;0.80;;;;;;;;;;4974376;28;20710;-69
2023/07/13 05:30:48;;;;;;;0.80;0.80;;;;;;;;;;4974960;28;20199;-69
2023/07/13 05:33:15;;;;;;;0.90;0.90;;;;;;;;;;4974417;28;20598;-69
2023/07/13 05:35:42;;;;;;;0.95;0.95;;;;;;;;;;4974740;28;20203;-69
2023/07/13 05:38:09;;;;;;;0.50;0.50;;;;;;;;;;4974609;28;20227;-69
2023/07/13 05:40:36;;;;;;;0.88;0.88;;;;;;;;;;4974622;28;20266;-69
2023/07/13 05:43:04;;;;;;;0.90;0.90;;;;;;;;;;4974673;28;20574;-69
2023/07/13 05:45:31;;;;;;;0.90;0.90;;;;;;;;;;4974912;28;20226;-69
2023/07/13 05:47:59;;;;;;;0.70;0.70;;;;;;;;;;4979100;28;20245;-69
2023/07/13 05:50:27;;;;;;;0.70;0.70;;;;;;;;;;4979137;28;20203;-69
2023/07/13 05:52:54;;;;;;;1.17;1.17;;;;;;;;;;4978466;28;20685;-69
2023/07/13 05:55:22;;;;;;;0.70;0.70;;;;;;;;;;4978548;28;20203;-68
2023/07/13 05:57:49;;;;;;;0.90;0.90;;;;;;;;;;4978109;28;20222;-69
2023/07/13 06:00:18;;;;;;;0.90;0.90;;;;;;;;;;4978390;28;20199;-69
2023/07/13 06:02:45;;;;;;;0.88;0.85;;;;;;;;;;4978147;28;20214;-69
2023/07/13 06:05:12;;;;;;;0.80;0.80;;;;;;;;;;4979086;28;20212;-69
2023/07/13 06:07:39;;;;;;;1.13;1.00;;;;;;;;;;4978154;28;20210;-69
2023/07/13 06:10:07;;;;;;;0.85;0.82;;;;;;;;;;4978229;28;20209;-69
2023/07/13 06:12:34;;;;;;;0.70;0.70;;;;;;;;;;4978157;28;20203;-69
2023/07/13 06:15:01;;;;;;;0.82;0.82;;;;;;;;;;4978175;28;20210;-69
2023/07/13 06:17:29;;;;;;;0.80;0.80;;;;;;;;;;4978049;28;20210;-69
2023/07/13 06:19:56;;;;;;;0.77;0.75;;;;;;;;;;4978118;28;20202;-68
2023/07/13 06:22:23;;;;;;;0.70;0.70;;;;;;;;;;4978049;28;20269;-69
2023/07/13 06:24:50;;;;;;;2.10;0.85;;;;;;;;;;4977555;28;20567;-69
2023/07/13 06:27:17;;;;;;;1.25;0.80;;;;;;;;;;4977890;28;20206;-70
2023/07/13 06:29:45;;;;;;;0.70;0.70;;;;;;;;;;4977874;28;20203;-69
2023/07/13 06:32:12;;;;;;;0.80;0.80;;;;;;;;;;4977909;28;20234;-67
2023/07/13 06:34:40;;;;;;;1.00;0.77;;;;;;;;;;4977800;28;20202;-69
2023/07/13 06:37:07;;;;;;;0.63;0.63;;;;;;;;;;4977668;28;20202;-68
2023/07/13 06:39:34;;;;;;;1.17;1.00;;;;;;;;;;4977342;28;20733;-69
2023/07/13 06:42:01;;;;;;;0.80;0.80;;;;;;;;;;4977883;28;20202;-69
2023/07/13 06:44:28;;;;;;;0.77;0.77;;;;;;;;;;4977609;28;20223;-69
2023/07/13 06:46:55;;;;;;;0.70;0.70;;;;;;;;;;4977500;28;20207;-69
2023/07/13 06:49:22;;;;;;;0.85;0.85;;;;;;;;;;4977438;28;20233;-69
2023/07/13 06:51:51;;;;;;;0.70;0.70;;;;;;;;;;4977408;28;20203;-68
2023/07/13 06:54:18;;;;;;;1.45;0.75;;;;;;;;;;4977422;28;20211;-68
2023/07/13 06:56:45;;;;;;;2.30;0.60;;;;;;;;;;4977025;28;20203;-68
2023/07/13 06:59:12;;;;;;;0.80;0.80;;;;;;;;;;4977526;28;20232;-69
2023/07/13 07:01:39;;;;;;;0.80;0.68;;;;;;;;;;4976824;28;20602;-69
2023/07/13 07:04:06;;;;;;;1.00;0.90;;;;;;;;;;4976717;28;20230;-68
2023/07/13 07:06:33;;;;;;;0.65;0.65;;;;;;;;;;4977123;28;20206;-68
2023/07/13 07:09:02;;;;;;;0.95;0.77;;;;;;;;;;4977063;28;20634;-68
2023/07/13 07:11:29;;;;;;;2.70;1.00;;;;;;;;;;4976981;28;20294;-69
2023/07/13 07:13:56;;;;;;;0.70;0.70;;;;;;;;;;4976992;28;20207;-69
2023/07/13 07:16:23;;;;;;;0.68;0.68;;;;;;;;;;4976960;28;20211;-69
2023/07/13 07:18:50;;;;;;;0.75;0.75;;;;;;;;;;4976812;28;20223;-69
2023/07/13 07:21:17;;;;;;;1.70;0.70;;;;;;;;;;4976991;28;20210;-68
2023/07/13 07:23:44;;;;;;;1.08;0.50;;;;;;;;;;4976816;28;20202;-68
2023/07/13 07:26:13;;;;;;;0.70;0.70;;;;;;;;;;4976719;28;20234;-68
2023/07/13 07:28:40;;;;;;;0.80;0.80;;;;;;;;;;4976712;28;20226;-68
2023/07/13 07:31:07;;;;;;;1.17;0.68;;;;;;;;;;4976734;28;20207;-68
2023/07/13 07:33:34;;;;;;;1.63;0.70;;;;;;;;;;4976782;28;20207;-68
2023/07/13 07:36:01;;;;;;;0.60;0.60;;;;;;;;;;4977035;28;20203;-68
2023/07/13 07:38:28;;;;;;;0.70;0.50;;;;;;;;;;4976835;28;20222;-68
2023/07/13 07:40:55;;;;;;;0.50;0.50;;;;;;;;;;4977122;28;20207;-68
2023/07/13 07:43:24;;;;;;;2.28;0.60;;;;;;;;;;4976818;28;20585;-68
2023/07/13 07:45:51;;;;;;;0.68;0.65;;;;;;;;;;4976902;28;20228;-68
2023/07/13 07:48:18;;;;;;;0.75;0.70;;;;;;;;;;4976798;28;20231;-69
2023/07/13 07:50:45;;;;;;;0.85;0.70;;;;;;;;;;4976394;28;20198;-69
2023/07/13 07:53:12;;;;;;;0.68;0.60;;;;;;;;;;4977144;28;20203;-69
2023/07/13 07:55:39;;;;;;;1.17;0.60;;;;;;;;;;4977130;28;20327;-69
2023/07/13 07:58:07;;;;;;;0.40;0.40;;;;;;;;;;4977023;28;20234;-69
2023/07/13 08:00:35;;;;;;;0.52;0.52;;;;;;;;;;4977175;28;20199;-69
2023/07/13 08:03:02;;;;;;;0.60;0.60;;;;;;;;;;4976909;28;20214;-69
2023/07/13 08:05:30;;;;;;;0.57;0.45;;;;;;;;;;4976302;28;20227;-70
2023/07/13 08:07:57;;;;;;;0.82;0.60;;;;;;;;;;4975822;28;20234;-69
2023/07/13 08:10:24;;;;;;;0.60;0.60;;;;;;;;;;4975698;28;20203;-69
2023/07/13 08:12:51;;;;;;;0.60;0.60;;;;;;;;;;4976204;28;20206;-69
2023/07/13 08:15:20;;;;;;;0.50;0.50;;;;;;;;;;4976029;28;20206;-68
2023/07/13 08:17:48;;;;;;;0.50;0.50;;;;;;;;;;4975950;28;20219;-68
2023/07/13 08:20:15;;;;;;;0.60;0.60;;;;;;;;;;4975874;28;20202;-68
2023/07/13 08:22:42;;;;;;;0.70;0.65;;;;;;;;;;4975876;28;20382;-69
2023/07/13 08:25:10;;;;;;;0.60;0.60;;;;;;;;;;4975573;28;20703;-69
2023/07/13 08:27:37;;;;;;;0.65;0.40;;;;;;;;;;4975596;28;20203;-69
2023/07/13 08:30:05;;;;;;;1.08;0.70;;;;;;;;;;4975588;28;20207;-69
2023/07/13 08:32:32;;;;;;;1.08;0.73;;;;;;;;;;4975560;28;20207;-69
2023/07/13 08:35:01;;;;;;;0.40;0.40;;;;;;;;;;4975524;28;20202;-69
2023/07/13 08:37:28;;;;;;;0.50;0.50;;;;;;;;;;4975544;28;20205;-69
2023/07/13 08:39:55;;;;;;;1.17;0.70;;;;;;;;;;4975565;28;20207;-68
2023/07/13 08:42:27;;;;;;;2.05;0.80;;;;;;;;;;4975603;28;20199;-69
2023/07/13 08:44:58;;;;;;;0.60;0.60;;;;;;;;;;4975482;28;20241;-68
2023/07/13 08:47:26;;;;;;;0.50;0.50;;;;;;;;;;4975655;28;20191;-68
2023/07/13 08:49:53;;;;;;;1.23;0.65;;;;;;;;;;4975767;28;20198;-69
2023/07/13 08:52:34;;;;;;;0.63;0.50;;;;;;;;;;4975324;28;20203;-69
2023/07/13 08:55:05;;;;;;;1.73;0.52;;;;;;;;;;4975798;28;20183;-69
2023/07/13 08:57:34;;;;;;;0.50;0.50;;;;;;;;;;4976294;28;20194;-69
2023/07/13 09:00:01;;;;;;;0.82;0.60;;;;;;;;;;4976294;28;20216;-69
2023/07/13 09:02:30;;;;;;;0.50;0.50;;;;;;;;;;4984378;28;20213;-68
2023/07/13 09:05:01;;;;;;;0.80;0.80;;;;;;;;;;4982945;28;20253;-69
2023/07/13 09:07:33;;;;;;;1.00;0.90;;;;;;;;;;4984148;28;20190;-68
2023/07/13 09:10:05;;;;;;;0.70;0.70;;;;;;;;;;4974918;28;20586;-68
2023/07/13 09:12:34;;;;;;;1.63;0.85;;;;;;;;;;4975076;28;20199;-68
2023/07/13 09:15:04;;;;;;;0.77;0.77;;;;;;;;;;4975130;28;20202;-69
2023/07/13 09:17:35;;;;;;;3.67;0.70;;;;;;;;;;4975983;28;20269;-69
2023/07/13 09:20:04;;;;;;;0.60;0.60;;;;;;;;;;4975013;28;20605;-69
2023/07/13 09:22:35;;;;;;;0.45;0.45;;;;;;;;;;4975123;28;20245;-69
2023/07/13 09:25:06;;;;;;;0.73;0.73;;;;;;;;;;4974973;28;20206;-69
2023/07/13 09:27:36;;;;;;;0.88;0.75;;;;;;;;;;4974699;28;20206;-69
2023/07/13 09:30:12;;;;;;;0.77;0.73;;;;;;;;;;4975032;28;20202;-69
2023/07/13 09:32:43;;;;;;;0.70;0.70;;;;;;;;;;4974933;28;20195;-69
2023/07/13 09:35:12;;;;;;;1.42;0.80;;;;;;;;;;4975012;28;20195;-68
2023/07/13 09:37:41;;;;;;;0.98;0.90;;;;;;;;;;4974952;28;20269;-68
2023/07/13 09:40:12;;;;;;;0.80;0.80;;;;;;;;;;4974869;28;20273;-68
2023/07/13 09:42:40;;;;;;;2.53;1.02;;;;;;;;;;4974577;28;20198;-69
2023/07/13 09:45:08;;;;;;;0.77;0.70;;;;;;;;;;4974429;28;20572;-69
2023/07/13 09:47:40;;;;;;;2.50;0.90;;;;;;;;;;4974462;28;20725;-68
2023/07/13 09:50:08;;;;;;;1.55;1.00;;;;;;;;;;4974551;28;20642;-69
2023/07/13 09:52:43;;;;;;;2.08;1.20;;;;;;;;;;4974860;28;20198;-68
2023/07/13 09:55:25;;;;;;;1.35;1.20;;;;;;;;;;4975556;28;20190;-68
2023/07/13 09:57:52;;;;;;;1.65;1.15;;;;;;;;;;4974729;28;20254;-69
2023/07/13 10:00:22;;;;;;;1.10;1.10;;;;;;;;;;4974904;28;20302;-68
2023/07/13 10:02:59;;;;;;;0.90;0.90;;;;;;;;;;4974298;28;20724;-69
2023/07/13 10:05:26;;;;;;;1.40;1.00;;;;;;;;;;4974595;28;20616;-69
2023/07/13 10:07:57;;;;;;;1.17;0.90;;;;;;;;;;4975271;28;20246;-69
2023/07/13 10:10:25;;;;;;;3.38;1.15;;;;;;;;;;4974550;28;20642;-69
2023/07/13 10:12:52;;;;;;;0.88;0.88;;;;;;;;;;4974637;28;20202;-69
2023/07/13 10:15:20;;;;;;;0.75;0.75;;;;;;;;;;4975099;28;20203;-68
2023/07/13 10:17:48;;;;;;;0.85;0.85;;;;;;;;;;4974775;28;20231;-68
2023/07/13 10:20:15;;;;;;;1.95;1.00;;;;;;;;;;4974873;28;20221;-68
2023/07/13 10:22:45;;;;;;;0.88;0.88;;;;;;;;;;4974739;28;20214;-68
2023/07/13 10:25:19;;;;;;;0.95;0.95;;;;;;;;;;4974422;28;20209;-67
2023/07/13 10:27:47;;;;;;;0.93;0.93;;;;;;;;;;4974533;28;20230;-68
2023/07/13 10:30:16;;;;;;;1.20;1.10;;;;;;;;;;4974310;28;20203;-66
2023/07/13 10:32:44;;;;;;;1.00;1.00;;;;;;;;;;4976222;28;20211;-66
2023/07/13 10:35:12;;;;;;;0.80;0.80;;;;;;;;;;4977893;28;20203;-66
2023/07/13 10:37:42;;;;;;;1.65;0.90;;;;;;;;;;4977647;28;20226;-66
2023/07/13 10:40:15;;;;;;;0.90;0.90;;;;;;;;;;4977809;28;20214;-66
2023/07/13 10:42:46;;;;;;;1.15;0.90;;;;;;;;;;4978617;28;20221;-66
2023/07/13 10:45:16;;;;;;;1.65;1.23;;;;;;;;;;4978773;28;20270;-66
2023/07/13 10:47:43;;;;;;;1.58;1.48;;;;;;;;;;4979428;28;20293;-67
2023/07/13 10:50:17;;;;;;;1.23;1.23;;;;;;;;;;4981378;28;20203;-67
2023/07/13 10:52:47;;;;;;;1.10;1.10;;;;;;;;;;4982619;28;20222;-68
2023/07/13 10:55:35;;;;;;;1.25;1.08;;;;;;;;;;4981763;28;20203;-70
2023/07/13 10:58:04;;;;;;;1.10;1.10;;;;;;;;;;4982026;28;20285;-70
2023/07/13 11:00:34;;;;;;;1.08;1.08;;;;;;;;;;4982676;28;20230;-70
2023/07/13 11:03:02;;;;;;;1.30;1.20;;;;;;;;;;4982320;28;20238;-70
2023/07/13 11:05:31;;;;;;;1.63;1.50;;;;;;;;;;4982452;28;20655;-70
2023/07/13 11:08:05;;;;;;;2.47;1.80;;;;;;;;;;4982246;28;20227;-70
2023/07/13 11:10:53;;;;;;;1.63;1.52;;;;;;;;;;4982770;28;20191;-68
2023/07/13 11:13:39;;;;;;;2.45;1.85;;;;;;;;;;4977622;28;20199;-67
2023/07/13 11:16:13;;;;;;;3.42;1.83;;;;;;;;;;4977394;28;20191;-67
2023/07/13 11:18:42;;;;;;;3.20;1.52;;;;;;;;;;4976801;28;20226;-67
2023/07/13 11:21:15;;;;;;;2.15;1.30;;;;;;;;;;4977131;28;20249;-67
2023/07/13 11:23:44;;;;;;;2.25;1.13;;;;;;;;;;4976832;28;20191;-67
2023/07/13 11:26:26;;;;;;;1.40;1.30;;;;;;;;;;4976630;28;20273;-67
2023/07/13 11:28:54;;;;;;;1.55;1.45;;;;;;;;;;4976087;28;20593;-67
2023/07/13 11:31:22;;;;;;;2.50;2.10;;;;;;;;;;4977097;28;20203;-67
2023/07/13 11:33:54;;;;;;;3.38;1.63;;;;;;;;;;4976749;28;20207;-67
2023/07/13 11:36:22;;;;;;;1.65;1.55;;;;;;;;;;4976713;28;20199;-66
2023/07/13 11:38:56;;;;;;;1.67;1.60;;;;;;;;;;4977643;28;20227;-67
2023/07/13 11:41:26;;;;;;;4.88;2.28;;;;;;;;;;4976445;28;20639;-67
2023/07/13 11:43:56;;;;;;;2.55;2.05;;;;;;;;;;4975771;28;20207;-67
2023/07/13 11:46:25;;;;;;;2.35;2.15;;;;;;;;;;4976174;28;20673;-67
2023/07/13 11:48:53;;;;;;;2.00;1.80;;;;;;;;;;4976352;28;20219;-67
2023/07/13 11:51:22;;;;;;;2.17;1.98;;;;;;;;;;4976136;28;20717;-66
2023/07/13 11:53:50;;;;;;;2.75;1.88;;;;;;;;;;4975968;28;20236;-66
2023/07/13 11:56:17;;;;;;;1.85;1.55;;;;;;;;;;4976500;28;20202;-67
2023/07/13 11:58:45;;;;;;;1.30;1.30;;;;;;;;;;4975941;28;20588;-67
2023/07/13 12:01:19;;;;;;;1.02;1.02;;;;;;;;;;4975979;28;20679;-68
2023/07/13 12:03:47;;;;;;;0.93;0.93;;;;;;;;;;4975966;28;20237;-67
2023/07/13 12:06:23;;;;;;;0.93;0.77;;;;;;;;;;4975996;28;20273;-67
2023/07/13 12:08:50;;;;;;;1.48;1.02;;;;;;;;;;4976025;28;20226;-68
2023/07/13 12:11:18;;;;;;;1.00;1.00;;;;;;;;;;4975727;28;20693;-67
2023/07/13 12:13:47;;;;;;;1.40;1.30;;;;;;;;;;4976218;28;20297;-69
2023/07/13 12:16:17;;;;;;;1.60;1.50;;;;;;;;;;4975986;28;20250;-70
2023/07/13 12:18:47;;;;;;;1.15;1.13;;;;;;;;;;4975836;28;20223;-70
2023/07/13 12:21:18;;;;;;;1.30;1.20;;;;;;;;;;4975868;28;20183;-70
2023/07/13 12:23:45;;;;;;;1.27;1.10;;;;;;;;;;4975937;28;20198;-70
2023/07/13 12:26:14;;;;;;;2.05;1.10;;;;;;;;;;4975757;28;20226;-70
2023/07/13 12:28:45;;;;;;;0.85;0.85;;;;;;;;;;4975838;28;20593;-70
2023/07/13 12:31:25;;;;;;;0.82;0.82;;;;;;;;;;4975749;28;20182;-70
2023/07/13 12:33:57;;;;;;;1.05;0.98;;;;;;;;;;4975996;28;20195;-70
2023/07/13 12:36:25;;;;;;;2.20;1.20;;;;;;;;;;4975693;28;20182;-68
2023/07/13 12:38:52;;;;;;;0.88;0.88;;;;;;;;;;4975562;28;20231;-68
2023/07/13 12:41:20;;;;;;;0.80;0.80;;;;;;;;;;4975678;28;20230;-68
2023/07/13 12:43:48;;;;;;;0.93;0.90;;;;;;;;;;4975620;28;20206;-68
2023/07/13 12:46:20;;;;;;;0.80;0.80;;;;;;;;;;4975381;28;20215;-68
2023/07/13 12:48:51;;;;;;;0.85;0.85;;;;;;;;;;4975521;28;20277;-68
2023/07/13 12:51:19;;;;;;;1.15;1.00;;;;;;;;;;4975409;28;20187;-68
2023/07/13 12:53:49;;;;;;;0.90;0.90;;;;;;;;;;4975723;28;20230;-68
2023/07/13 12:56:19;;;;;;;0.75;0.75;;;;;;;;;;4975218;28;20194;-68
2023/07/13 12:58:50;;;;;;;0.82;0.82;;;;;;;;;;4975627;28;20299;-68
2023/07/13 13:01:18;;;;;;;0.88;0.88;;;;;;;;;;4975176;28;20666;-67
2023/07/13 13:03:47;;;;;;;0.93;0.93;;;;;;;;;;4975224;28;20215;-68
2023/07/13 13:06:24;;;;;;;0.82;0.82;;;;;;;;;;4975656;28;20206;-67
2023/07/13 13:08:52;;;;;;;0.70;0.70;;;;;;;;;;4975365;28;20734;-68
2023/07/13 13:11:19;;;;;;;0.85;0.85;;;;;;;;;;4975858;28;20209;-67
2023/07/13 13:13:47;;;;;;;0.70;0.70;;;;;;;;;;4976501;28;20344;-68
2023/07/13 13:16:18;;;;;;;0.73;0.73;;;;;;;;;;4976787;28;20222;-70
2023/07/13 13:18:45;;;;;;;0.70;0.70;;;;;;;;;;4975609;28;20233;-70
2023/07/13 13:21:12;;;;;;;1.10;1.00;;;;;;;;;;4975574;28;20202;-71
2023/07/13 13:23:41;;;;;;;1.05;0.60;;;;;;;;;;4975579;28;20203;-69
2023/07/13 13:26:10;;;;;;;1.45;1.02;;;;;;;;;;4976343;28;20209;-69
2023/07/13 13:28:38;;;;;;;0.65;0.65;;;;;;;;;;4976595;28;20599;-70
2023/07/13 13:31:05;;;;;;;0.93;0.93;;;;;;;;;;4976524;28;20206;-70
2023/07/13 13:33:32;;;;;;;0.93;0.93;;;;;;;;;;4976288;28;20202;-70
2023/07/13 13:35:59;;;;;;;1.05;1.05;;;;;;;;;;4976057;28;20285;-70
2023/07/13 13:38:27;;;;;;;1.05;1.05;;;;;;;;;;4975190;28;20227;-70
2023/07/13 13:40:56;;;;;;;1.38;1.27;;;;;;;;;;4974508;28;20689;-70
2023/07/13 13:43:26;;;;;;;1.08;0.90;;;;;;;;;;4975382;28;20217;-69
2023/07/13 13:45:53;;;;;;;1.60;1.42;;;;;;;;;;4974684;28;20207;-69
2023/07/13 13:48:21;;;;;;;1.00;1.00;;;;;;;;;;4974447;28;20226;-70
2023/07/13 13:50:49;;;;;;;1.23;1.17;;;;;;;;;;4974664;28;20203;-70
2023/07/13 13:53:16;;;;;;;1.52;0.80;;;;;;;;;;4974710;28;20283;-69
2023/07/13 13:55:43;;;;;;;0.90;0.90;;;;;;;;;;4974699;28;20230;-70
2023/07/13 13:58:12;;;;;;;1.00;1.00;;;;;;;;;;4974662;28;20225;-69
2023/07/13 14:00:39;;;;;;;0.90;0.90;;;;;;;;;;4974664;28;20205;-70
2023/07/13 14:03:07;;;;;;;0.88;0.88;;;;;;;;;;4974340;28;20206;-69
2023/07/13 14:05:34;;;;;;;0.80;0.80;;;;;;;;;;4974519;28;20674;-70
2023/07/13 14:08:01;;;;;;;0.80;0.80;;;;;;;;;;4976675;28;20223;-69
2023/07/13 14:10:29;;;;;;;1.05;1.05;;;;;;;;;;4977886;28;20207;-69
2023/07/13 14:12:57;;;;;;;1.08;1.00;;;;;;;;;;4977940;28;20199;-70
2023/07/13 14:15:27;;;;;;;1.50;1.40;;;;;;;;;;4978152;28;20213;-70
2023/07/13 14:17:54;;;;;;;1.40;1.30;;;;;;;;;;4978027;28;20602;-70
2023/07/13 14:20:23;;;;;;;1.08;1.08;;;;;;;;;;4978014;28;20207;-70
2023/07/13 14:22:51;;;;;;;1.10;1.02;;;;;;;;;;4977893;28;20214;-69
2023/07/13 14:25:18;;;;;;;1.13;1.13;;;;;;;;;;4977817;28;20198;-70
2023/07/13 14:27:46;;;;;;;1.00;1.00;;;;;;;;;;4977690;28;20227;-69
2023/07/13 14:30:16;;;;;;;0.80;0.80;;;;;;;;;;4977473;28;20594;-69
2023/07/13 14:32:45;;;;;;;1.13;1.13;;;;;;;;;;4977600;28;20689;-69
2023/07/13 14:35:13;;;;;;;0.90;0.90;;;;;;;;;;4978128;28;20203;-68
2023/07/13 14:37:40;;;;;;;0.80;0.80;;;;;;;;;;4977593;28;20254;-69
2023/07/13 14:40:14;;;;;;;0.90;0.90;;;;;;;;;;4977647;28;20206;-69
2023/07/13 14:42:41;;;;;;;0.90;0.90;;;;;;;;;;4977715;28;20192;-69
2023/07/13 14:45:13;;;;;;;0.80;0.80;;;;;;;;;;4977920;28;20234;-70
2023/07/13 14:47:40;;;;;;;1.10;1.00;;;;;;;;;;4977754;28;20207;-70
2023/07/13 14:50:13;;;;;;;0.98;0.98;;;;;;;;;;4977937;28;20206;-70
2023/07/13 14:52:40;;;;;;;0.90;0.90;;;;;;;;;;4978026;28;20191;-70
2023/07/13 14:55:10;;;;;;;1.00;1.00;;;;;;;;;;4977928;28;20206;-70
2023/07/13 14:57:38;;;;;;;0.77;0.77;;;;;;;;;;4989855;28;20202;-69
2023/07/13 15:00:05;;;;;;;1.08;0.95;;;;;;;;;;4997317;28;20203;-68
2023/07/13 15:02:34;;;;;;;0.80;0.80;;;;;;;;;;4993088;28;20210;-70
2023/07/13 15:05:01;;;;;;;0.98;0.98;;;;;;;;;;4977146;28;20687;-69
2023/07/13 15:07:29;;;;;;;1.05;1.05;;;;;;;;;;4977794;28;20230;-69
2023/07/13 15:09:56;;;;;;;2.15;1.10;;;;;;;;;;4977807;28;20187;-70
2023/07/13 15:12:24;;;;;;;1.38;1.10;;;;;;;;;;4977343;28;20205;-70
2023/07/13 15:14:51;;;;;;;1.27;1.10;;;;;;;;;;4977340;28;20207;-70
2023/07/13 15:17:23;;;;;;;0.90;0.90;;;;;;;;;;4976692;28;20574;-70
2023/07/13 15:19:50;;;;;;;;;;;;;;;;;;4979332;28;20058;-78
2023/07/13 15:22:17;;;;;;;1.20;1.20;;;;;;;;;;4982540;28;19922;-78
2023/07/13 15:24:47;;;;;;;0.85;0.85;;;;;;;;;;4984873;28;20202;-81
2023/07/13 15:27:14;;;;;;;0.73;0.73;;;;;;;;;;4984716;28;20305;-81
2023/07/13 15:29:42;;;;;;;0.70;0.70;;;;;;;;;;4983941;28;20226;-80
2023/07/13 15:32:12;;;;;;;0.80;0.80;;;;;;;;;;4983375;28;20285;-80
2023/07/13 15:34:41;;;;;;;2.35;0.80;;;;;;;;;;4984495;28;20210;-81
2023/07/13 15:37:12;;;;;;;1.13;1.02;;;;;;;;;;4985829;28;20293;-79
2023/07/13 15:39:39;;;;;;;2.30;1.05;;;;;;;;;;4983531;28;20222;-79
2023/07/13 15:42:09;;;;;;;1.15;1.15;;;;;;;;;;4983093;28;20210;-80
2023/07/13 15:44:38;;;;;;;1.00;1.00;;;;;;;;;;4982816;28;20281;-80
2023/07/13 15:47:04;;;;;;;;;;;;;;;;;;4980417;28;20450;-67
2023/07/13 15:49:32;;;;;;;;;;;;;;;;;;4976930;28;19922;-67
2023/07/13 15:51:59;;;;;;;;;;;;;;;;;;4977149;28;19964;-67
2023/07/13 15:54:25;;;;;;;;;;;;;;;;;;4976760;28;20405;-66
2023/07/13 15:56:52;;;;;;;;;;;;;;;;;;4976755;28;19922;-67
2023/07/13 15:59:19;;;;;;;;;;;;;;;;;;4977093;28;20271;-68
2023/07/13 16:01:49;;;;;;;;;;;;;;;;;;4976765;28;20007;-67
2023/07/13 16:04:16;;;;;;;;;;;;;;;;;;4976746;28;19975;-68
2023/07/13 16:06:42;;;;;;;;;;;;;;;;;;4976976;28;19928;-67
2023/07/13 16:09:10;;;;;;;;;;;;;;;;;;4976582;28;19925;-67
2023/07/13 16:11:37;;;;;;;;;;;;;;;;;;4976660;28;19922;-67
2023/07/13 16:14:05;;;;;;;;;;;;;;;;;;4976934;28;19953;-66
2023/07/13 16:16:32;;;;;;;;;;;;;;;;;;4976490;28;19922;-67
2023/07/13 16:18:59;;;;;;;;;;;;;;;;;;4976249;28;19926;-67
2023/07/13 16:21:29;;;;;;;1.40;1.00;;;;;;;;;;4976196;28;20427;-66
2023/07/13 16:23:57;;;;;;;0.85;0.68;;;;;;;;;;4975829;28;20238;-68
2023/07/13 16:26:26;;;;;;;0.93;0.90;;;;;;;;;;4975863;28;20230;-68
2023/07/13 16:29:00;;;;;;;1.00;0.73;;;;;;;;;;4975178;28;20575;-68
2023/07/13 16:31:27;;;;;;;0.60;0.60;;;;;;;;;;4975349;28;20195;-68
2023/07/13 16:33:54;;;;;;;0.85;0.85;;;;;;;;;;4975862;28;20207;-67
2023/07/13 16:36:21;;;;;;;1.17;0.93;;;;;;;;;;4975590;28;20226;-67
2023/07/13 16:38:50;;;;;;;0.63;0.60;;;;;;;;;;4975174;28;20702;-67
2023/07/13 16:41:17;;;;;;;0.75;0.75;;;;;;;;;;4976114;28;20245;-67
2023/07/13 16:43:45;;;;;;;0.70;0.70;;;;;;;;;;4975506;28;20203;-68
2023/07/13 16:46:14;;;;;;;0.50;0.50;;;;;;;;;;4975624;28;20254;-66
2023/07/13 16:48:41;;;;;;;0.70;0.70;;;;;;;;;;4975285;28;20576;-67
2023/07/13 16:51:08;;;;;;;0.70;0.70;;;;;;;;;;4975420;28;20213;-66
2023/07/13 16:53:35;;;;;;;0.90;0.60;;;;;;;;;;4975838;28;20203;-67
2023/07/13 16:56:05;;;;;;;1.05;0.95;;;;;;;;;;4975715;28;20213;-67
2023/07/13 16:58:34;;;;;;;0.60;0.60;;;;;;;;;;4975342;28;20229;-67
2023/07/13 17:01:03;;;;;;;1.15;0.90;;;;;;;;;;4975151;28;20210;-67
2023/07/13 17:03:30;;;;;;;0.65;0.65;;;;;;;;;;4974741;28;20623;-67
2023/07/13 17:05:59;;;;;;;0.88;0.88;;;;;;;;;;4975200;28;20203;-67
2023/07/13 17:08:28;;;;;;;0.75;0.70;;;;;;;;;;4974768;28;20251;-67
2023/07/13 17:10:57;;;;;;;1.10;1.00;;;;;;;;;;4975079;28;20210;-67
2023/07/13 17:13:25;;;;;;;0.80;0.80;;;;;;;;;;4975089;28;20230;-67
2023/07/13 17:15:56;;;;;;;2.40;1.13;;;;;;;;;;4975194;28;20207;-67
2023/07/13 17:18:24;;;;;;;0.80;0.80;;;;;;;;;;4974919;28;20586;-67
2023/07/13 17:20:51;;;;;;;0.85;0.85;;;;;;;;;;4974945;28;20202;-67
2023/07/13 17:23:20;;;;;;;0.82;0.82;;;;;;;;;;4974887;28;20211;-67
2023/07/13 17:25:48;;;;;;;1.92;1.10;;;;;;;;;;4974945;28;20213;-67
2023/07/13 17:28:16;;;;;;;0.90;0.90;;;;;;;;;;4974839;28;20226;-66
2023/07/13 17:30:46;;;;;;;0.85;0.80;;;;;;;;;;4975242;28;20203;-66
2023/07/13 17:33:21;;;;;;;0.75;0.75;;;;;;;;;;4975057;28;20222;-67
2023/07/13 17:35:48;;;;;;;0.82;0.82;;;;;;;;;;4975027;28;20187;-68
2023/07/13 17:38:16;;;;;;;0.98;0.80;;;;;;;;;;4974810;28;20309;-67
2023/07/13 17:40:43;;;;;;;4.85;0.70;;;;;;;;;;4974903;28;20202;-67
2023/07/13 17:43:10;;;;;;;0.65;0.65;;;;;;;;;;4977694;28;20683;-66
2023/07/13 17:45:37;;;;;;;0.60;0.60;;;;;;;;;;4978344;28;20566;-66
2023/07/13 17:48:06;;;;;;;0.80;0.80;;;;;;;;;;4978988;28;20226;-66
2023/07/13 17:50:36;;;;;;;0.80;0.80;;;;;;;;;;4978545;28;20249;-68
2023/07/13 17:53:06;;;;;;;0.60;0.60;;;;;;;;;;4978705;28;20214;-67
2023/07/13 17:55:34;;;;;;;0.50;0.50;;;;;;;;;;4978497;28;20234;-67
2023/07/13 17:58:01;;;;;;;0.80;0.70;;;;;;;;;;4978449;28;20250;-67
2023/07/13 18:00:35;;;;;;;0.52;0.52;;;;;;;;;;4978822;28;20241;-68
2023/07/13 18:03:05;;;;;;;0.70;0.70;;;;;;;;;;4978349;28;20210;-67
2023/07/13 18:05:35;;;;;;;0.60;0.60;;;;;;;;;;4978430;28;20206;-67
2023/07/13 18:08:04;;;;;;;0.60;0.60;;;;;;;;;;4977973;28;20222;-67
2023/07/13 18:10:32;;;;;;;0.70;0.70;;;;;;;;;;4978273;28;20203;-67
2023/07/13 18:13:00;;;;;;;0.65;0.65;;;;;;;;;;4978193;28;20890;-67
2023/07/13 18:15:29;;;;;;;0.60;0.60;;;;;;;;;;4978228;28;20203;-67
2023/07/13 18:17:56;;;;;;;0.70;0.70;;;;;;;;;;4978811;28;20234;-67
2023/07/13 18:20:23;;;;;;;0.68;0.68;;;;;;;;;;4977791;28;20642;-67
2023/07/13 18:22:53;;;;;;;0.60;0.60;;;;;;;;;;4977944;28;20651;-67
2023/07/13 18:25:21;;;;;;;0.75;0.75;;;;;;;;;;4978392;28;20191;-67
2023/07/13 18:27:48;;;;;;;0.68;0.68;;;;;;;;;;4978174;28;20261;-67
2023/07/13 18:30:17;;;;;;;0.70;0.70;;;;;;;;;;4978334;28;20214;-67
2023/07/13 18:32:45;;;;;;;0.60;0.60;;;;;;;;;;4978275;28;20270;-67
2023/07/13 18:35:16;;;;;;;0.70;0.70;;;;;;;;;;4980899;28;20211;-67
2023/07/13 18:37:44;;;;;;;0.57;0.57;;;;;;;;;;4981994;28;20234;-67
2023/07/13 18:40:17;;;;;;;0.60;0.60;;;;;;;;;;4981682;28;20227;-67
2023/07/13 18:42:44;;;;;;;0.70;0.70;;;;;;;;;;4984430;28;20662;-67
2023/07/13 18:45:14;;;;;;;0.70;0.70;;;;;;;;;;4979551;28;20714;-68
2023/07/13 18:47:42;;;;;;;0.55;0.55;;;;;;;;;;4978314;28;20294;-68
2023/07/13 18:50:19;;;;;;;0.60;0.60;;;;;;;;;;4978327;28;20223;-68
2023/07/13 18:52:46;;;;;;;0.50;0.50;;;;;;;;;;4977694;28;20191;-68
2023/07/13 18:55:19;;;;;;;0.60;0.60;;;;;;;;;;4977801;28;20209;-68